createdAt,value
2022-09-22T00:00:10.728Z,33.22
2022-09-22T00:01:34.966Z,33.15
2022-09-22T00:02:42.521Z,33.05
2022-09-22T00:03:53.728Z,32.90
2022-09-22T00:05:00.040Z,33.01
2022-09-22T00:06:28.569Z,33.02
2022-09-22T00:07:35.142Z,32.91
2022-09-22T00:08:45.198Z,32.86
2022-09-22T00:09:51.468Z,32.84
2022-09-22T00:11:07.616Z,32.66
2022-09-22T00:12:15.018Z,32.68
2022-09-22T00:13:21.100Z,32.68
2022-09-22T00:14:28.331Z,32.77
2022-09-22T00:15:37.475Z,32.99
2022-09-22T00:16:51.344Z,32.79
2022-09-22T00:17:57.057Z,32.71
2022-09-22T00:19:03.238Z,32.47
2022-09-22T00:20:14.135Z,32.41
2022-09-22T00:21:22.268Z,32.32
2022-09-22T00:22:29.881Z,32.12
2022-09-22T00:23:36.364Z,32.02
2022-09-22T00:24:43.914Z,31.94
2022-09-22T00:25:51.131Z,31.73
2022-09-22T00:26:58.015Z,31.57
2022-09-22T00:28:05.356Z,31.50
2022-09-22T00:29:11.682Z,31.17
2022-09-22T00:30:19.218Z,31.13
2022-09-22T00:31:26.997Z,31.04
2022-09-22T00:32:32.892Z,30.95
2022-09-22T00:33:39.968Z,30.72
2022-09-22T00:34:46.226Z,30.61
2022-09-22T00:36:05.441Z,30.62
2022-09-22T00:37:11.667Z,30.75
2022-09-22T00:38:17.797Z,30.81
2022-09-22T00:39:24.194Z,30.80
2022-09-22T00:40:30.244Z,30.88
2022-09-22T00:41:38.643Z,30.94
2022-09-22T00:42:44.753Z,30.83
2022-09-22T00:43:53.057Z,30.92
2022-09-22T00:44:59.398Z,30.81
2022-09-22T00:46:26.232Z,30.84
2022-09-22T00:47:42.135Z,30.85
2022-09-22T00:48:59.355Z,30.90
2022-09-22T00:50:20.418Z,30.87
2022-09-22T00:51:28.671Z,30.94
2022-09-22T00:53:00.226Z,30.98
2022-09-22T00:54:08.985Z,30.94
2022-09-22T00:55:22.020Z,31.09
2022-09-22T00:56:35.980Z,31.03
2022-09-22T00:57:42.691Z,31.01
2022-09-22T00:58:53.571Z,30.99
2022-09-22T01:00:00.268Z,30.85
2022-09-22T01:01:09.069Z,30.77
2022-09-22T01:02:16.996Z,30.73
2022-09-22T01:03:29.070Z,30.74
2022-09-22T01:04:38.508Z,30.70
2022-09-22T01:05:50.491Z,30.69
2022-09-22T01:06:58.893Z,30.65
2022-09-22T01:08:08.044Z,30.47
2022-09-22T01:09:17.045Z,30.15
2022-09-22T01:10:25.392Z,29.91
2022-09-22T01:11:34.186Z,29.62
2022-09-22T01:12:42.974Z,29.30
2022-09-22T01:14:11.185Z,29.01
2022-09-22T01:15:27.442Z,28.63
2022-09-22T01:16:53.916Z,28.33
2022-09-22T01:18:31.738Z,28.00
2022-09-22T01:19:45.272Z,27.65
2022-09-22T01:21:25.860Z,27.41
2022-09-22T01:22:39.502Z,27.13
2022-09-22T01:24:05.105Z,26.96
2022-09-22T01:25:49.268Z,26.80
2022-09-22T01:27:15.254Z,26.61
2022-09-22T01:28:45.166Z,26.48
2022-09-22T01:30:15.793Z,26.31
2022-09-22T01:31:46.031Z,26.17
2022-09-22T01:33:38.267Z,26.02
2022-09-22T01:34:45.261Z,25.85
2022-09-22T01:35:57.806Z,25.69
2022-09-22T01:37:10.808Z,25.61
2022-09-22T01:38:37.002Z,25.53
2022-09-22T01:40:00.947Z,25.43
2022-09-22T01:41:43.925Z,25.33
2022-09-22T01:42:56.986Z,25.22
2022-09-22T01:44:12.298Z,25.15
2022-09-22T01:45:30.860Z,25.08
2022-09-22T01:46:43.849Z,25.00
2022-09-22T01:48:01.328Z,24.93
2022-09-22T01:49:09.813Z,24.87
2022-09-22T01:50:20.394Z,24.80
2022-09-22T01:51:31.329Z,24.72
2022-09-22T01:52:38.159Z,24.67
2022-09-22T01:53:52.913Z,24.62
2022-09-22T01:55:23.228Z,24.56
2022-09-22T01:56:34.861Z,24.46
2022-09-22T01:57:51.199Z,24.40
2022-09-22T01:58:59.630Z,24.36
2022-09-22T02:00:10.021Z,24.30
2022-09-22T02:01:28.170Z,24.24
2022-09-22T02:02:43.546Z,24.19
2022-09-22T02:04:22.659Z,24.15
2022-09-22T02:05:40.416Z,24.06
2022-09-22T02:06:51.538Z,24.00
2022-09-22T02:07:58.330Z,23.95
2022-09-22T02:09:07.993Z,23.92
2022-09-22T02:10:15.469Z,23.87
2022-09-22T02:11:26.370Z,23.84
2022-09-22T02:12:37.334Z,23.80
2022-09-22T02:13:46.882Z,23.77
2022-09-22T02:14:54.732Z,23.72
2022-09-22T02:16:01.410Z,23.65
2022-09-22T02:17:07.896Z,23.62
2022-09-22T02:18:24.952Z,23.58
2022-09-22T02:19:41.040Z,23.54
2022-09-22T02:20:47.967Z,23.48
2022-09-22T02:21:57.000Z,23.44
2022-09-22T02:23:04.269Z,23.42
2022-09-22T02:24:31.595Z,23.40
2022-09-22T02:25:39.767Z,23.34
2022-09-22T02:26:49.171Z,23.29
2022-09-22T02:27:55.749Z,23.25
2022-09-22T02:29:09.990Z,23.22
2022-09-22T02:30:16.796Z,23.16
2022-09-22T02:31:24.175Z,23.12
2022-09-22T02:32:33.619Z,23.04
2022-09-22T02:33:41.335Z,23.02
2022-09-22T02:34:50.753Z,23.00
2022-09-22T02:36:14.786Z,22.95
2022-09-22T02:37:28.887Z,22.87
2022-09-22T02:38:48.891Z,22.82
2022-09-22T02:40:02.944Z,22.78
2022-09-22T02:41:52.084Z,22.77
2022-09-22T02:43:32.668Z,22.71
2022-09-22T02:44:50.672Z,22.64
2022-09-22T02:46:19.419Z,22.58
2022-09-22T02:47:33.846Z,22.54
2022-09-22T02:48:49.580Z,22.49
2022-09-22T02:49:56.646Z,22.46
2022-09-22T02:51:03.050Z,22.43
2022-09-22T02:52:14.058Z,22.39
2022-09-22T02:53:20.466Z,22.35
2022-09-22T02:54:27.660Z,22.33
2022-09-22T02:55:36.225Z,22.29
2022-09-22T02:56:44.476Z,22.25
2022-09-22T02:57:51.773Z,22.21
2022-09-22T02:58:58.933Z,22.18
2022-09-22T03:00:06.482Z,22.15
2022-09-22T03:01:14.332Z,22.10
2022-09-22T03:02:22.718Z,22.09
2022-09-22T03:03:30.512Z,22.04
2022-09-22T03:04:40.984Z,22.02
2022-09-22T03:05:48.177Z,21.96
2022-09-22T03:06:55.379Z,21.93
2022-09-22T03:08:04.487Z,21.92
2022-09-22T03:09:11.504Z,21.90
2022-09-22T03:10:18.886Z,21.84
2022-09-22T03:11:28.213Z,21.80
2022-09-22T03:12:36.263Z,21.79
2022-09-22T03:13:45.014Z,21.76
2022-09-22T03:14:55.233Z,21.72
2022-09-22T03:16:01.822Z,21.70
2022-09-22T03:17:07.879Z,21.69
2022-09-22T03:18:15.415Z,21.67
2022-09-22T03:19:22.318Z,21.63
2022-09-22T03:20:32.336Z,21.58
2022-09-22T03:21:39.975Z,21.54
2022-09-22T03:22:49.809Z,21.48
2022-09-22T03:23:56.469Z,21.44
2022-09-22T03:25:02.999Z,21.42
2022-09-22T03:26:10.159Z,21.40
2022-09-22T03:27:17.011Z,21.38
2022-09-22T03:28:25.894Z,21.35
2022-09-22T03:29:33.333Z,21.31
2022-09-22T03:30:44.340Z,21.28
2022-09-22T03:31:52.748Z,21.22
2022-09-22T03:32:59.864Z,21.20
2022-09-22T03:34:06.511Z,21.21
2022-09-22T03:35:13.629Z,21.19
2022-09-22T03:36:20.795Z,21.17
2022-09-22T03:37:28.470Z,21.14
2022-09-22T03:38:36.019Z,21.10
2022-09-22T03:39:45.274Z,21.06
2022-09-22T03:40:53.074Z,21.04
2022-09-22T03:41:59.712Z,21.05
2022-09-22T03:43:05.143Z,21.06
2022-09-22T03:44:12.325Z,21.06
2022-09-22T03:45:18.885Z,21.06
2022-09-22T03:46:27.444Z,21.06
2022-09-22T03:47:33.409Z,21.05
2022-09-22T03:48:45.124Z,21.02
2022-09-22T03:49:53.750Z,20.98
2022-09-22T03:51:00.610Z,20.93
2022-09-22T03:52:06.933Z,20.87
2022-09-22T03:53:13.579Z,20.83
2022-09-22T03:54:22.689Z,20.80
2022-09-22T03:55:30.812Z,20.76
2022-09-22T03:56:37.679Z,20.77
2022-09-22T03:57:45.018Z,20.77
2022-09-22T03:58:51.690Z,20.75
2022-09-22T03:59:58.387Z,20.77
2022-09-22T04:01:04.689Z,20.76
2022-09-22T04:02:11.673Z,20.76
2022-09-22T04:03:18.439Z,20.77
2022-09-22T04:04:25.546Z,20.78
2022-09-22T04:05:33.327Z,20.74
2022-09-22T04:06:40.723Z,20.72
2022-09-22T04:07:48.343Z,20.70
2022-09-22T04:08:57.777Z,20.67
2022-09-22T04:10:05.531Z,20.64
2022-09-22T04:11:11.665Z,20.59
2022-09-22T04:12:18.148Z,20.51
2022-09-22T04:13:24.077Z,20.45
2022-09-22T04:14:34.358Z,20.40
2022-09-22T04:15:41.668Z,20.34
2022-09-22T04:16:48.526Z,20.28
2022-09-22T04:17:55.695Z,20.23
2022-09-22T04:19:05.836Z,20.18
2022-09-22T04:20:14.249Z,20.13
2022-09-22T04:21:20.855Z,20.09
2022-09-22T04:22:27.772Z,20.05
2022-09-22T04:23:35.768Z,20.02
2022-09-22T04:24:45.094Z,19.98
2022-09-22T04:25:51.194Z,19.95
2022-09-22T04:27:18.579Z,19.93
2022-09-22T04:28:25.072Z,19.89
2022-09-22T04:29:31.806Z,19.85
2022-09-22T04:30:38.922Z,19.81
2022-09-22T04:31:46.202Z,19.79
2022-09-22T04:32:55.642Z,19.77
2022-09-22T04:34:06.859Z,19.74
2022-09-22T04:35:14.528Z,19.71
2022-09-22T04:36:21.275Z,19.67
2022-09-22T04:37:28.477Z,19.67
2022-09-22T04:38:38.820Z,19.67
2022-09-22T04:39:45.977Z,19.66
2022-09-22T04:40:54.180Z,19.62
2022-09-22T04:42:01.354Z,19.60
2022-09-22T04:43:08.181Z,19.58
2022-09-22T04:44:18.575Z,19.59
2022-09-22T04:45:25.615Z,19.60
2022-09-22T04:46:35.475Z,19.56
2022-09-22T04:47:42.480Z,19.52
2022-09-22T04:48:49.689Z,19.49
2022-09-22T04:49:57.307Z,19.46
2022-09-22T04:51:04.383Z,19.42
2022-09-22T04:52:11.516Z,19.37
2022-09-22T04:53:18.181Z,19.34
2022-09-22T04:54:25.953Z,19.31
2022-09-22T04:55:34.791Z,19.28
2022-09-22T04:56:43.910Z,19.25
2022-09-22T04:57:54.937Z,19.21
2022-09-22T04:59:01.883Z,19.18
2022-09-22T05:00:09.524Z,19.15
2022-09-22T05:01:19.733Z,19.12
2022-09-22T05:02:26.998Z,19.08
2022-09-22T05:03:39.464Z,19.04
2022-09-22T05:04:46.987Z,19.00
2022-09-22T05:05:53.603Z,18.95
2022-09-22T05:07:03.240Z,18.91
2022-09-22T05:08:11.174Z,18.88
2022-09-22T05:09:18.156Z,18.85
2022-09-22T05:10:26.308Z,18.83
2022-09-22T05:11:33.704Z,18.81
2022-09-22T05:12:42.256Z,18.79
2022-09-22T05:13:51.686Z,18.76
2022-09-22T05:15:00.009Z,18.72
2022-09-22T05:16:07.467Z,18.68
2022-09-22T05:17:15.640Z,18.66
2022-09-22T05:18:23.723Z,18.65
2022-09-22T05:19:32.355Z,18.64
2022-09-22T05:20:40.959Z,18.62
2022-09-22T05:21:48.310Z,18.62
2022-09-22T05:22:56.007Z,18.61
2022-09-22T05:24:02.791Z,18.60
2022-09-22T05:25:15.175Z,18.60
2022-09-22T05:26:26.095Z,18.58
2022-09-22T05:27:33.487Z,18.57
2022-09-22T05:28:43.032Z,18.57
2022-09-22T05:29:50.863Z,18.56
2022-09-22T05:30:58.226Z,18.53
2022-09-22T05:32:04.938Z,18.51
2022-09-22T05:33:11.644Z,18.52
2022-09-22T05:34:19.713Z,18.51
2022-09-22T05:35:29.947Z,18.50
2022-09-22T05:36:40.128Z,18.49
2022-09-22T05:37:48.675Z,18.49
2022-09-22T05:38:55.429Z,18.49
2022-09-22T05:40:02.699Z,18.47
2022-09-22T05:41:09.243Z,18.46
2022-09-22T05:42:16.575Z,18.44
2022-09-22T05:43:23.875Z,18.41
2022-09-22T05:44:32.392Z,18.39
2022-09-22T05:45:39.618Z,18.38
2022-09-22T05:46:47.909Z,18.38
2022-09-22T05:47:55.294Z,18.37
2022-09-22T05:49:03.781Z,18.34
2022-09-22T05:50:11.113Z,18.31
2022-09-22T05:51:19.615Z,18.27
2022-09-22T05:52:27.782Z,18.24
2022-09-22T05:53:34.919Z,18.20
2022-09-22T05:54:44.428Z,18.15
2022-09-22T05:55:52.610Z,18.12
2022-09-22T05:57:01.327Z,18.09
2022-09-22T05:58:09.692Z,18.06
2022-09-22T05:59:16.347Z,18.02
2022-09-22T06:00:23.196Z,17.99
2022-09-22T06:01:31.117Z,17.99
2022-09-22T06:02:40.946Z,18.00
2022-09-22T06:03:49.414Z,18.01
2022-09-22T06:04:58.532Z,18.01
2022-09-22T06:06:05.383Z,18.01
2022-09-22T06:07:12.047Z,17.99
2022-09-22T06:08:18.594Z,17.96
2022-09-22T06:09:28.724Z,17.91
2022-09-22T06:10:37.232Z,17.87
2022-09-22T06:11:44.490Z,17.84
2022-09-22T06:12:53.255Z,17.83
2022-09-22T06:14:00.063Z,17.81
2022-09-22T06:15:07.395Z,17.80
2022-09-22T06:16:14.769Z,17.79
2022-09-22T06:17:21.055Z,17.78
2022-09-22T06:18:28.451Z,17.78
2022-09-22T06:19:35.416Z,17.76
2022-09-22T06:20:42.441Z,17.75
2022-09-22T06:21:50.968Z,17.75
2022-09-22T06:23:00.968Z,17.75
2022-09-22T06:24:07.873Z,17.76
2022-09-22T06:25:14.372Z,17.78
2022-09-22T06:26:21.017Z,17.78
2022-09-22T06:27:27.533Z,17.78
2022-09-22T06:28:34.822Z,17.76
2022-09-22T06:29:42.222Z,17.74
2022-09-22T06:30:50.275Z,17.73
2022-09-22T06:31:56.707Z,17.71
2022-09-22T06:33:04.092Z,17.69
2022-09-22T06:34:13.064Z,17.68
2022-09-22T06:35:19.608Z,17.66
2022-09-22T06:36:35.997Z,17.65
2022-09-22T06:37:44.597Z,17.64
2022-09-22T06:38:53.494Z,17.62
2022-09-22T06:39:59.424Z,17.60
2022-09-22T06:41:08.027Z,17.59
2022-09-22T06:42:17.618Z,17.57
2022-09-22T06:43:26.529Z,17.55
2022-09-22T06:44:33.272Z,17.54
2022-09-22T06:45:40.831Z,17.54
2022-09-22T06:46:48.678Z,17.53
2022-09-22T06:47:59.006Z,17.52
2022-09-22T06:49:05.377Z,17.52
2022-09-22T06:50:13.094Z,17.51
2022-09-22T06:51:21.188Z,17.48
2022-09-22T06:52:28.390Z,17.49
2022-09-22T06:53:35.670Z,17.48
2022-09-22T06:54:43.475Z,17.45
2022-09-22T06:55:53.326Z,17.41
2022-09-22T06:57:02.874Z,17.37
2022-09-22T06:58:10.172Z,17.34
2022-09-22T06:59:17.413Z,17.33
2022-09-22T07:00:23.940Z,17.34
2022-09-22T07:01:32.030Z,17.35
2022-09-22T07:02:39.974Z,17.36
2022-09-22T07:03:48.162Z,17.35
2022-09-22T07:05:00.358Z,17.36
2022-09-22T07:06:06.985Z,17.38
2022-09-22T07:07:13.667Z,17.38
2022-09-22T07:08:20.084Z,17.40
2022-09-22T07:09:28.514Z,17.43
2022-09-22T07:10:38.450Z,17.44
2022-09-22T07:11:49.936Z,17.46
2022-09-22T07:13:00.303Z,17.48
2022-09-22T07:14:07.155Z,17.53
2022-09-22T07:15:15.374Z,17.56
2022-09-22T07:16:23.050Z,17.57
2022-09-22T07:17:33.641Z,17.55
2022-09-22T07:18:45.804Z,17.54
2022-09-22T07:19:57.056Z,17.51
2022-09-22T07:21:10.541Z,17.46
2022-09-22T07:22:21.147Z,17.42
2022-09-22T07:23:27.636Z,17.37
2022-09-22T07:24:34.118Z,17.32
2022-09-22T07:25:41.448Z,17.27
2022-09-22T07:26:47.454Z,17.22
2022-09-22T07:27:55.914Z,17.19
2022-09-22T07:29:07.165Z,17.17
2022-09-22T07:30:15.147Z,17.15
2022-09-22T07:31:28.645Z,17.15
2022-09-22T07:32:36.428Z,17.14
2022-09-22T07:33:44.936Z,17.14
2022-09-22T07:34:53.700Z,17.14
2022-09-22T07:36:10.445Z,17.12
2022-09-22T07:37:19.584Z,17.10
2022-09-22T07:38:40.626Z,17.07
2022-09-22T07:39:50.668Z,17.07
2022-09-22T07:41:01.135Z,17.06
2022-09-22T07:42:07.948Z,17.08
2022-09-22T07:43:17.014Z,17.09
2022-09-22T07:44:46.281Z,17.09
2022-09-22T07:45:58.045Z,17.09
2022-09-22T07:47:06.905Z,17.08
2022-09-22T07:48:31.584Z,17.08
2022-09-22T07:49:38.342Z,17.04
2022-09-22T07:50:45.517Z,17.04
2022-09-22T07:51:58.140Z,17.01
2022-09-22T07:53:08.115Z,16.99
2022-09-22T07:54:14.209Z,16.98
2022-09-22T07:55:25.688Z,16.96
2022-09-22T07:56:32.104Z,16.95
2022-09-22T07:57:41.465Z,16.95
2022-09-22T07:58:54.446Z,16.94
2022-09-22T08:00:01.077Z,16.95
2022-09-22T08:01:09.429Z,16.94
2022-09-22T08:02:16.789Z,16.94
2022-09-22T08:03:26.318Z,16.92
2022-09-22T08:04:33.524Z,16.92
2022-09-22T08:05:41.603Z,16.91
2022-09-22T08:06:53.005Z,16.89
2022-09-22T08:08:01.316Z,16.84
2022-09-22T08:09:07.894Z,16.80
2022-09-22T08:10:17.247Z,16.77
2022-09-22T08:11:24.928Z,16.74
2022-09-22T08:12:33.193Z,16.70
2022-09-22T08:13:41.336Z,16.64
2022-09-22T08:14:48.671Z,16.58
2022-09-22T08:15:57.553Z,16.54
2022-09-22T08:17:03.768Z,16.50
2022-09-22T08:18:11.754Z,16.46
2022-09-22T08:19:19.633Z,16.43
2022-09-22T08:20:31.120Z,16.40
2022-09-22T08:21:47.998Z,16.36
2022-09-22T08:23:04.353Z,16.31
2022-09-22T08:24:12.863Z,16.27
2022-09-22T08:25:19.602Z,16.24
2022-09-22T08:26:26.658Z,16.20
2022-09-22T08:27:38.506Z,16.18
2022-09-22T08:28:46.152Z,16.17
2022-09-22T08:29:55.243Z,16.16
2022-09-22T08:31:02.509Z,16.16
2022-09-22T08:32:08.681Z,16.16
2022-09-22T08:33:14.706Z,16.15
2022-09-22T08:34:22.798Z,16.14
2022-09-22T08:35:32.003Z,16.10
2022-09-22T08:36:50.320Z,16.08
2022-09-22T08:37:59.207Z,16.03
2022-09-22T08:39:05.982Z,16.00
2022-09-22T08:40:21.514Z,15.96
2022-09-22T08:41:31.347Z,15.92
2022-09-22T08:42:38.443Z,15.87
2022-09-22T08:44:02.728Z,15.85
2022-09-22T08:45:36.240Z,15.84
2022-09-22T08:46:47.409Z,15.82
2022-09-22T08:48:20.627Z,15.80
2022-09-22T08:50:04.963Z,15.78
2022-09-22T08:51:55.255Z,15.77
2022-09-22T08:53:02.062Z,15.75
2022-09-22T08:54:09.253Z,15.73
2022-09-22T08:55:26.822Z,15.72
2022-09-22T08:56:44.236Z,15.71
2022-09-22T08:58:14.285Z,15.68
2022-09-22T08:59:24.383Z,15.64
2022-09-22T09:00:45.198Z,15.61
2022-09-22T09:02:12.898Z,15.58
2022-09-22T09:03:19.418Z,15.56
2022-09-22T09:04:43.579Z,15.56
2022-09-22T09:06:06.776Z,15.53
2022-09-22T09:07:22.849Z,15.49
2022-09-22T09:08:48.944Z,15.45
2022-09-22T09:10:22.167Z,15.40
2022-09-22T09:11:47.250Z,15.35
2022-09-22T09:13:07.879Z,15.30
2022-09-22T09:14:51.539Z,15.30
2022-09-22T09:16:20.512Z,15.30
2022-09-22T09:17:29.202Z,15.27
2022-09-22T09:18:40.671Z,15.23
2022-09-22T09:19:54.224Z,15.20
2022-09-22T09:21:02.414Z,15.16
2022-09-22T09:22:25.635Z,15.13
2022-09-22T09:25:44.045Z,15.04
2022-09-22T09:26:52.894Z,15.04
2022-09-22T09:28:03.395Z,15.05
2022-09-22T09:29:14.879Z,15.06
2022-09-22T09:30:22.577Z,15.07
2022-09-22T09:32:07.769Z,15.09
2022-09-22T09:33:26.590Z,15.08
2022-09-22T09:34:36.994Z,15.05
2022-09-22T09:35:54.097Z,15.02
2022-09-22T09:37:17.024Z,14.98
2022-09-22T09:38:36.527Z,14.93
2022-09-22T09:39:44.382Z,14.91
2022-09-22T09:41:05.378Z,14.89
2022-09-22T09:42:32.635Z,14.87
2022-09-22T09:43:43.898Z,14.86
2022-09-22T09:44:54.158Z,14.83
2022-09-22T09:46:18.831Z,14.81
2022-09-22T09:47:49.106Z,14.78
2022-09-22T09:49:09.334Z,14.80
2022-09-22T09:50:17.540Z,14.85
2022-09-22T09:51:24.198Z,14.88
2022-09-22T09:52:32.906Z,14.89
2022-09-22T09:53:47.251Z,14.88
2022-09-22T09:54:55.251Z,14.90
2022-09-22T09:56:02.510Z,14.91
2022-09-22T09:57:27.393Z,14.92
2022-09-22T09:58:56.692Z,14.95
2022-09-22T10:00:33.551Z,14.99
2022-09-22T10:01:42.763Z,15.03
2022-09-22T10:02:52.435Z,15.07
2022-09-22T10:04:01.464Z,15.08
2022-09-22T10:05:29.766Z,15.09
2022-09-22T10:06:37.052Z,15.11
2022-09-22T10:07:48.344Z,15.12
2022-09-22T10:08:54.832Z,15.13
2022-09-22T10:10:37.138Z,15.16
2022-09-22T10:11:43.069Z,15.18
2022-09-22T10:12:52.286Z,15.20
2022-09-22T10:13:58.545Z,15.23
2022-09-22T10:15:13.895Z,15.26
2022-09-22T10:16:24.375Z,15.28
2022-09-22T10:17:43.032Z,15.30
2022-09-22T10:19:24.887Z,15.31
2022-09-22T10:20:32.775Z,15.32
2022-09-22T10:21:39.485Z,15.34
2022-09-22T10:22:46.347Z,15.36
2022-09-22T10:23:56.285Z,15.38
2022-09-22T10:25:05.237Z,15.39
2022-09-22T10:26:31.449Z,15.40
2022-09-22T10:27:39.746Z,15.40
2022-09-22T10:29:08.323Z,15.41
2022-09-22T10:30:25.359Z,15.40
2022-09-22T10:31:33.743Z,15.39
2022-09-22T10:33:09.961Z,15.38
2022-09-22T10:35:05.299Z,15.35
2022-09-22T10:36:15.841Z,15.33
2022-09-22T10:37:30.409Z,15.33
2022-09-22T10:38:42.087Z,15.31
2022-09-22T10:39:55.874Z,15.30
2022-09-22T10:41:16.569Z,15.27
2022-09-22T10:42:35.871Z,15.22
2022-09-22T10:44:20.966Z,15.16
2022-09-22T10:45:42.449Z,15.09
2022-09-22T10:47:29.444Z,15.05
2022-09-22T10:48:55.193Z,15.03
2022-09-22T10:50:08.674Z,15.02
2022-09-22T10:51:39.310Z,15.00
2022-09-22T10:53:33.079Z,14.98
2022-09-22T10:55:16.913Z,14.97
2022-09-22T10:56:39.713Z,14.95
2022-09-22T10:58:37.793Z,14.92
2022-09-22T11:00:20.024Z,14.86
2022-09-22T11:01:40.738Z,14.82
2022-09-22T11:02:51.702Z,14.79
2022-09-22T11:04:03.571Z,14.76
2022-09-22T11:05:46.113Z,14.74
2022-09-22T11:07:41.226Z,14.69
2022-09-22T11:09:36.379Z,14.65
2022-09-22T11:11:35.903Z,14.62
2022-09-22T11:13:39.996Z,14.58
2022-09-22T11:15:23.859Z,14.54
2022-09-22T11:17:02.040Z,14.51
2022-09-22T11:18:47.694Z,14.47
2022-09-22T11:20:37.345Z,14.43
2022-09-22T11:22:16.818Z,14.41
2022-09-22T11:23:47.025Z,14.41
2022-09-22T11:25:23.024Z,14.38
2022-09-22T11:26:54.599Z,14.36
2022-09-22T11:28:34.877Z,14.35
2022-09-22T11:30:18.294Z,14.31
2022-09-22T11:31:48.472Z,14.28
2022-09-22T11:33:32.459Z,14.24
2022-09-22T11:35:00.932Z,14.20
2022-09-22T11:36:36.239Z,14.18
2022-09-22T11:37:51.849Z,14.17
2022-09-22T11:39:10.677Z,14.16
2022-09-22T11:40:35.520Z,14.14
2022-09-22T11:41:53.629Z,14.13
2022-09-22T11:43:27.940Z,14.11
2022-09-22T11:45:04.992Z,14.08
2022-09-22T11:46:20.856Z,14.02
2022-09-22T11:47:46.666Z,13.97
2022-09-22T11:49:31.207Z,13.93
2022-09-22T11:51:05.558Z,13.89
2022-09-22T11:52:51.890Z,13.84
2022-09-22T11:54:18.261Z,13.79
2022-09-22T11:56:03.095Z,13.76
2022-09-22T11:57:25.075Z,13.75
2022-09-22T11:58:32.992Z,13.73
2022-09-22T11:59:46.503Z,13.74
2022-09-22T12:01:22.498Z,13.72
2022-09-22T12:02:48.508Z,13.70
2022-09-22T12:04:10.004Z,13.68
2022-09-22T12:05:28.792Z,13.68
2022-09-22T12:06:39.173Z,13.70
2022-09-22T12:07:57.315Z,13.71
2022-09-22T12:09:36.692Z,13.72
2022-09-22T12:10:49.629Z,13.72
2022-09-22T12:11:56.796Z,13.73
2022-09-22T12:13:14.353Z,13.74
2022-09-22T12:14:22.332Z,13.76
2022-09-22T12:15:30.443Z,13.78
2022-09-22T12:17:03.216Z,13.81
2022-09-22T12:18:25.110Z,13.87
2022-09-22T12:19:41.353Z,13.91
2022-09-22T12:21:25.032Z,13.96
2022-09-22T12:22:32.423Z,14.00
2022-09-22T12:23:48.987Z,14.04
2022-09-22T12:24:59.780Z,14.08
2022-09-22T12:26:12.355Z,14.12
2022-09-22T12:27:28.815Z,14.14
2022-09-22T12:28:47.865Z,14.13
2022-09-22T12:30:12.882Z,14.12
2022-09-22T12:31:22.403Z,14.10
2022-09-22T12:32:40.325Z,14.09
2022-09-22T12:33:51.868Z,14.08
2022-09-22T12:34:59.207Z,14.07
2022-09-22T12:36:05.310Z,14.05
2022-09-22T12:37:23.385Z,14.03
2022-09-22T12:38:32.390Z,13.99
2022-09-22T12:39:46.275Z,13.96
2022-09-22T12:40:58.160Z,13.95
2022-09-22T12:42:08.034Z,13.94
2022-09-22T12:43:23.118Z,13.93
2022-09-22T12:44:32.046Z,13.91
2022-09-22T12:45:39.335Z,13.89
2022-09-22T12:46:47.199Z,13.87
2022-09-22T12:47:55.019Z,13.86
2022-09-22T12:49:10.277Z,13.84
2022-09-22T12:50:32.333Z,13.82
2022-09-22T12:51:39.132Z,13.82
2022-09-22T12:52:46.612Z,13.79
2022-09-22T12:53:52.920Z,13.77
2022-09-22T12:55:40.846Z,13.78
2022-09-22T12:57:23.617Z,13.75
2022-09-22T12:58:31.057Z,13.70
2022-09-22T12:59:41.420Z,13.65
2022-09-22T13:00:51.566Z,13.61
2022-09-22T13:02:34.299Z,13.57
2022-09-22T13:03:49.104Z,13.51
2022-09-22T13:05:06.669Z,13.47
2022-09-22T13:06:28.920Z,13.43
2022-09-22T13:07:45.924Z,13.40
2022-09-22T13:08:56.855Z,13.37
2022-09-22T13:10:24.415Z,13.32
2022-09-22T13:12:29.865Z,13.28
2022-09-22T13:13:45.221Z,13.24
2022-09-22T13:15:02.570Z,13.22
2022-09-22T13:16:18.112Z,13.22
2022-09-22T13:17:45.857Z,13.22
2022-09-22T13:18:56.305Z,13.21
2022-09-22T13:20:29.599Z,13.19
2022-09-22T13:21:38.132Z,13.17
2022-09-22T13:22:45.987Z,13.14
2022-09-22T13:23:59.998Z,13.13
2022-09-22T13:25:39.571Z,13.11
2022-09-22T13:26:46.625Z,13.07
2022-09-22T13:28:28.937Z,13.05
2022-09-22T13:29:36.224Z,13.03
2022-09-22T13:30:44.231Z,13.02
2022-09-22T13:31:52.524Z,13.00
2022-09-22T13:32:59.477Z,12.99
2022-09-22T13:34:27.265Z,12.97
2022-09-22T13:35:41.712Z,12.95
2022-09-22T13:36:48.037Z,12.93
2022-09-22T13:37:59.564Z,12.93
2022-09-22T13:39:06.749Z,12.93
2022-09-22T13:40:13.911Z,12.95
2022-09-22T13:41:21.612Z,12.97
2022-09-22T13:42:33.487Z,13.00
2022-09-22T13:43:43.766Z,13.03
2022-09-22T13:45:07.569Z,13.07
2022-09-22T13:46:29.748Z,13.14
2022-09-22T13:47:37.618Z,13.21
2022-09-22T13:48:46.150Z,13.25
2022-09-22T13:49:55.975Z,13.30
2022-09-22T13:51:06.157Z,13.36
2022-09-22T13:52:22.985Z,13.39
2022-09-22T13:53:30.237Z,13.43
2022-09-22T13:54:38.702Z,13.46
2022-09-22T13:55:46.126Z,13.50
2022-09-22T13:56:54.190Z,13.54
2022-09-22T13:58:01.584Z,13.58
2022-09-22T13:59:08.557Z,13.61
2022-09-22T14:00:38.168Z,13.70
2022-09-22T14:01:54.044Z,13.91
2022-09-22T14:03:03.244Z,14.13
2022-09-22T14:04:25.113Z,14.37
2022-09-22T14:05:37.930Z,14.63
2022-09-22T14:06:47.061Z,14.83
2022-09-22T14:08:11.128Z,15.10
2022-09-22T14:09:20.519Z,15.49
2022-09-22T14:10:29.089Z,15.80
2022-09-22T14:11:37.074Z,16.07
2022-09-22T14:12:45.002Z,16.39
2022-09-22T14:13:56.008Z,16.70
2022-09-22T14:15:44.601Z,16.98
2022-09-22T14:16:58.681Z,17.45
2022-09-22T14:18:27.362Z,17.69
2022-09-22T14:19:41.685Z,18.04
2022-09-22T14:20:47.724Z,18.34
2022-09-22T14:21:58.743Z,18.60
2022-09-22T14:23:05.564Z,18.84
2022-09-22T14:24:14.539Z,19.09
2022-09-22T14:25:22.437Z,19.32
2022-09-22T14:26:34.747Z,19.50
2022-09-22T14:27:49.083Z,19.72
2022-09-22T14:28:56.953Z,20.00
2022-09-22T14:30:03.513Z,20.24
2022-09-22T14:31:24.134Z,20.50
2022-09-22T14:32:45.376Z,20.83
2022-09-22T14:33:53.899Z,21.07
2022-09-22T14:35:01.251Z,21.25
2022-09-22T14:36:13.411Z,21.30
2022-09-22T14:37:42.529Z,21.23
2022-09-22T14:39:05.232Z,21.16
2022-09-22T14:40:27.009Z,21.16
2022-09-22T14:41:40.962Z,21.22
2022-09-22T14:43:13.260Z,21.20
2022-09-22T14:44:36.849Z,21.23
2022-09-22T14:46:08.753Z,21.38
2022-09-22T14:47:30.204Z,21.66
2022-09-22T14:48:38.705Z,21.97
2022-09-22T14:49:48.032Z,22.19
2022-09-22T14:50:57.879Z,22.31
2022-09-22T14:52:08.045Z,22.35
2022-09-22T14:53:32.621Z,22.41
2022-09-22T14:54:41.475Z,22.52
2022-09-22T14:56:12.958Z,22.60
2022-09-22T14:57:19.674Z,22.54
2022-09-22T14:58:27.602Z,22.43
2022-09-22T14:59:57.319Z,22.28
2022-09-22T15:01:51.403Z,22.16
2022-09-22T15:03:03.378Z,22.03
2022-09-22T15:04:28.292Z,21.96
2022-09-22T15:05:35.492Z,21.99
2022-09-22T15:06:42.935Z,22.14
2022-09-22T15:07:50.234Z,22.31
2022-09-22T15:08:56.995Z,22.41
2022-09-22T15:10:08.557Z,22.57
2022-09-22T15:11:20.100Z,22.80
2022-09-22T15:12:37.471Z,23.07
2022-09-22T15:13:51.826Z,23.36
2022-09-22T15:15:03.994Z,23.65
2022-09-22T15:16:38.904Z,23.96
2022-09-22T15:18:05.729Z,24.38
2022-09-22T15:19:14.140Z,24.88
2022-09-22T15:20:22.414Z,25.24
2022-09-22T15:21:30.398Z,25.45
2022-09-22T15:22:38.535Z,25.65
2022-09-22T15:23:47.993Z,25.93
2022-09-22T15:24:54.889Z,26.22
2022-09-22T15:26:05.315Z,26.54
2022-09-22T15:27:21.866Z,26.81
2022-09-22T15:28:29.764Z,26.98
2022-09-22T15:29:36.272Z,27.04
2022-09-22T15:30:43.616Z,27.04
2022-09-22T15:31:53.273Z,27.11
2022-09-22T15:33:00.456Z,27.24
2022-09-22T15:34:07.826Z,27.31
2022-09-22T15:35:14.650Z,27.54
2022-09-22T15:36:22.278Z,27.64
2022-09-22T15:37:31.592Z,27.63
2022-09-22T15:38:38.199Z,27.51
2022-09-22T15:39:45.835Z,27.35
2022-09-22T15:40:54.064Z,27.16
2022-09-22T15:42:09.785Z,27.00
2022-09-22T15:43:23.665Z,26.92
2022-09-22T15:44:33.494Z,26.87
2022-09-22T15:45:54.041Z,26.86
2022-09-22T15:47:02.095Z,26.95
2022-09-22T15:48:09.490Z,27.15
2022-09-22T15:49:25.934Z,27.31
2022-09-22T15:50:33.948Z,27.29
2022-09-22T15:51:41.431Z,27.28
2022-09-22T15:52:48.053Z,27.23
2022-09-22T15:53:55.485Z,27.17